Time;durP1;ratioP1;P1;durP2;ratioP2;P2;SDS_P1;SDS_P2;PMS_P1;PMS_P2;Temp;Humidity;BMP_temperature;BMP_pressure;BME280_temperature;BME280_humidity;BME280_pressure;Samples;Min_cycle;Max_cycle;Signal;HPM_P1;HPM_P2
2021/05/04 00:01:13;;;;;;;3.80;3.00;;;;;;;;;;4936557;29;20479;-76
2021/05/04 00:03:39;;;;;;;4.47;3.63;;;;;;;;;;4936450;29;20545;-75
2021/05/04 00:06:05;;;;;;;4.35;3.33;;;;;;;;;;4935726;29;20114;-75
2021/05/04 00:08:31;;;;;;;4.38;3.20;;;;;;;;;;4936605;29;20087;-75
2021/05/04 00:10:57;;;;;;;3.40;2.90;;;;;;;;;;4936420;29;20051;-76
2021/05/04 00:13:23;;;;;;;4.85;3.03;;;;;;;;;;4919355;29;20048;-75
2021/05/04 00:15:49;;;;;;;4.25;3.10;;;;;;;;;;4931456;29;20108;-75
2021/05/04 00:18:16;;;;;;;5.18;3.80;;;;;;;;;;4928008;29;20511;-75
2021/05/04 00:20:42;;;;;;;3.95;3.13;;;;;;;;;;4904627;29;20156;-75
2021/05/04 00:23:08;;;;;;;4.63;3.60;;;;;;;;;;4936238;29;20503;-75
2021/05/04 00:25:34;;;;;;;6.80;3.20;;;;;;;;;;4935651;29;20087;-76
2021/05/04 00:28:00;;;;;;;8.40;4.32;;;;;;;;;;4917548;29;20055;-76
2021/05/04 00:30:27;;;;;;;3.88;3.28;;;;;;;;;;4917300;29;20471;-75
2021/05/04 00:32:53;;;;;;;6.35;2.88;;;;;;;;;;4930244;29;20653;-76
2021/05/04 00:35:19;;;;;;;4.47;3.13;;;;;;;;;;4935745;29;20084;-76
2021/05/04 00:37:45;;;;;;;4.45;3.53;;;;;;;;;;4921016;29;20423;-76
2021/05/04 00:40:12;;;;;;;4.70;3.08;;;;;;;;;;4924178;29;20396;-76
2021/05/04 00:42:38;;;;;;;5.57;3.13;;;;;;;;;;4935617;29;20505;-75
2021/05/04 00:45:05;;;;;;;4.30;3.53;;;;;;;;;;4932452;29;20123;-76
2021/05/04 00:47:31;;;;;;;3.95;3.17;;;;;;;;;;4916703;29;20139;-76
2021/05/04 00:49:57;;;;;;;5.28;3.00;;;;;;;;;;4916728;29;20082;-75
2021/05/04 00:52:23;;;;;;;4.97;3.25;;;;;;;;;;4899669;29;20379;-75
2021/05/04 00:54:50;;;;;;;4.18;3.30;;;;;;;;;;4899087;29;20348;-75
2021/05/04 00:57:16;;;;;;;3.90;3.50;;;;;;;;;;4899399;29;20145;-75
2021/05/04 00:59:44;;;;;;;5.10;3.72;;;;;;;;;;4899772;29;20063;-75
2021/05/04 01:02:10;;;;;;;4.20;3.33;;;;;;;;;;4899895;29;20056;-75
2021/05/04 01:04:38;;;;;;;7.47;3.95;;;;;;;;;;4899774;29;20054;-75
2021/05/04 01:07:04;;;;;;;4.05;3.65;;;;;;;;;;4902601;29;20111;-76
2021/05/04 01:09:30;;;;;;;5.55;3.72;;;;;;;;;;4935226;29;20079;-76
2021/05/04 01:11:56;;;;;;;4.63;3.92;;;;;;;;;;4918458;29;20114;-76
2021/05/04 01:14:23;;;;;;;6.68;4.38;;;;;;;;;;4923026;29;20099;-76
2021/05/04 01:16:49;;;;;;;6.63;4.88;;;;;;;;;;4916000;29;20087;-75
2021/05/04 01:19:17;;;;;;;5.00;3.63;;;;;;;;;;4916301;29;20056;-75
2021/05/04 01:21:43;;;;;;;5.38;3.60;;;;;;;;;;4899441;29;20111;-75
2021/05/04 01:24:10;;;;;;;4.55;3.85;;;;;;;;;;4898393;29;20079;-76
2021/05/04 01:26:36;;;;;;;4.20;3.80;;;;;;;;;;4916626;29;20079;-76
2021/05/04 01:29:03;;;;;;;4.97;3.70;;;;;;;;;;4933922;29;20142;-75
2021/05/04 01:31:30;;;;;;;3.63;3.17;;;;;;;;;;4899096;29;20116;-73
2021/05/04 01:33:56;;;;;;;4.65;3.67;;;;;;;;;;4917650;29;20060;-74
2021/05/04 01:36:23;;;;;;;5.25;4.60;;;;;;;;;;4927410;29;20096;-73
2021/05/04 01:38:49;;;;;;;5.15;4.18;;;;;;;;;;4908671;29;20095;-73
2021/05/04 01:41:15;;;;;;;6.22;4.45;;;;;;;;;;4933800;29;20052;-73
2021/05/04 01:43:41;;;;;;;6.65;3.80;;;;;;;;;;4917928;29;20495;-73
2021/05/04 01:46:08;;;;;;;5.55;3.78;;;;;;;;;;4934279;29;20150;-73
2021/05/04 01:48:34;;;;;;;5.70;3.58;;;;;;;;;;4917889;29;20059;-74
2021/05/04 01:51:01;;;;;;;3.65;3.13;;;;;;;;;;4907063;29;20071;-73
2021/05/04 01:53:28;;;;;;;7.53;3.85;;;;;;;;;;4883759;29;20056;-73
2021/05/04 01:55:54;;;;;;;5.75;3.50;;;;;;;;;;4915725;29;20052;-73
2021/05/04 01:58:20;;;;;;;4.45;3.50;;;;;;;;;;4915559;29;20103;-73
2021/05/04 02:00:46;;;;;;;5.07;3.13;;;;;;;;;;4898795;29;20094;-73
2021/05/04 02:03:12;;;;;;;4.03;3.38;;;;;;;;;;4903789;29;20047;-72
2021/05/04 02:05:38;;;;;;;4.38;3.38;;;;;;;;;;4916927;29;20058;-73
2021/05/04 02:08:05;;;;;;;6.18;3.70;;;;;;;;;;4916143;29;20578;-73
2021/05/04 02:10:31;;;;;;;3.72;3.35;;;;;;;;;;4898896;29;20092;-73
2021/05/04 02:12:57;;;;;;;4.22;3.20;;;;;;;;;;4934003;29;20573;-73
2021/05/04 02:15:23;;;;;;;5.30;3.05;;;;;;;;;;4934389;29;20126;-73
2021/05/04 02:17:49;;;;;;;3.55;3.25;;;;;;;;;;4934319;29;20055;-73
2021/05/04 02:20:15;;;;;;;5.30;3.90;;;;;;;;;;4934652;29;20052;-73
2021/05/04 02:22:41;;;;;;;3.55;3.03;;;;;;;;;;4931277;29;20075;-73
2021/05/04 02:25:08;;;;;;;5.32;3.40;;;;;;;;;;4934484;29;20047;-73
2021/05/04 02:27:34;;;;;;;4.82;3.10;;;;;;;;;;4915748;29;20127;-73
2021/05/04 02:30:03;;;;;;;4.55;3.35;;;;;;;;;;4898686;29;20059;-73
2021/05/04 02:32:34;;;;;;;4.65;3.08;;;;;;;;;;4898591;29;20103;-73
2021/05/04 02:35:04;;;;;;;4.40;3.05;;;;;;;;;;4934627;29;20107;-73
2021/05/04 02:37:30;;;;;;;7.00;3.03;;;;;;;;;;4924501;29;20527;-73
2021/05/04 02:39:56;;;;;;;7.43;3.35;;;;;;;;;;4898666;29;20052;-73
2021/05/04 02:42:22;;;;;;;6.30;2.88;;;;;;;;;;4895721;29;20052;-73
2021/05/04 02:44:48;;;;;;;3.85;2.67;;;;;;;;;;4915131;29;20099;-73
2021/05/04 02:47:14;;;;;;;3.95;2.97;;;;;;;;;;4915181;29;20056;-73
2021/05/04 02:49:41;;;;;;;3.67;2.53;;;;;;;;;;4931721;29;20423;-73
2021/05/04 02:52:08;;;;;;;5.25;2.90;;;;;;;;;;4923143;29;20108;-73
2021/05/04 02:54:34;;;;;;;4.85;3.30;;;;;;;;;;4898252;29;20519;-73
2021/05/04 02:57:00;;;;;;;5.20;2.97;;;;;;;;;;4937593;23;20056;-67
2021/05/04 02:59:26;;;;;;;3.20;2.30;;;;;;;;;;4933462;29;20051;-67
2021/05/04 03:01:52;;;;;;;3.15;2.58;;;;;;;;;;4934102;29;20131;-68
2021/05/04 03:04:18;;;;;;;3.70;3.08;;;;;;;;;;4934023;29;20051;-67
2021/05/04 03:06:44;;;;;;;4.13;3.25;;;;;;;;;;4921663;29;20478;-67
2021/05/04 03:09:10;;;;;;;3.45;2.65;;;;;;;;;;4928208;29;20126;-67
2021/05/04 03:11:36;;;;;;;3.80;2.90;;;;;;;;;;4931562;29;20566;-67
2021/05/04 03:14:02;;;;;;;3.13;2.80;;;;;;;;;;4932789;29;20088;-66
2021/05/04 03:16:29;;;;;;;2.90;2.60;;;;;;;;;;4933156;29;20103;-67
2021/05/04 03:18:55;;;;;;;4.53;2.90;;;;;;;;;;4935658;29;20094;-66
2021/05/04 03:21:21;;;;;;;3.65;2.90;;;;;;;;;;4935980;29;20048;-67
2021/05/04 03:23:47;;;;;;;4.35;3.53;;;;;;;;;;4935510;29;20055;-66
2021/05/04 03:26:14;;;;;;;3.03;2.55;;;;;;;;;;4936003;29;20075;-67
2021/05/04 03:28:41;;;;;;;3.58;2.33;;;;;;;;;;4935731;29;20059;-66
2021/05/04 03:31:07;;;;;;;3.65;2.70;;;;;;;;;;4936233;29;20079;-66
2021/05/04 03:33:33;;;;;;;2.72;2.47;;;;;;;;;;4935478;29;20052;-66
2021/05/04 03:36:00;;;;;;;2.83;2.58;;;;;;;;;;4890145;29;20055;-66
2021/05/04 03:38:26;;;;;;;3.67;2.67;;;;;;;;;;4935603;29;20055;-66
2021/05/04 03:40:52;;;;;;;2.58;2.25;;;;;;;;;;4935902;29;20055;-66
2021/05/04 03:43:18;;;;;;;2.45;2.25;;;;;;;;;;4935950;29;20474;-66
2021/05/04 03:45:44;;;;;;;4.60;2.42;;;;;;;;;;4937062;29;20048;-66
2021/05/04 03:48:10;;;;;;;4.03;2.60;;;;;;;;;;4935689;29;20466;-66
2021/05/04 03:50:36;;;;;;;5.30;2.80;;;;;;;;;;4936529;29;20499;-66
2021/05/04 03:53:03;;;;;;;3.10;2.53;;;;;;;;;;4934664;29;20051;-66
2021/05/04 03:55:29;;;;;;;3.60;2.63;;;;;;;;;;4935280;29;20051;-66
2021/05/04 03:57:55;;;;;;;5.22;2.95;;;;;;;;;;4936384;29;20530;-66
2021/05/04 04:00:22;;;;;;;3.08;2.42;;;;;;;;;;4936821;29;20085;-66
2021/05/04 04:02:48;;;;;;;5.90;2.90;;;;;;;;;;4936571;29;20118;-66
2021/05/04 04:05:14;;;;;;;3.20;2.47;;;;;;;;;;4936863;29;20048;-66
2021/05/04 04:07:40;;;;;;;2.88;2.55;;;;;;;;;;4935839;29;20079;-66
2021/05/04 04:10:08;;;;;;;2.58;2.38;;;;;;;;;;4943812;29;20079;-66
2021/05/04 04:12:34;;;;;;;4.28;2.13;;;;;;;;;;4939565;29;20566;-67
2021/05/04 04:15:00;;;;;;;3.63;2.60;;;;;;;;;;4936545;29;20052;-66
2021/05/04 04:17:26;;;;;;;4.55;2.75;;;;;;;;;;4936129;29;20463;-66
2021/05/04 04:19:53;;;;;;;2.55;2.25;;;;;;;;;;4936192;29;20097;-67
2021/05/04 04:22:19;;;;;;;3.03;2.58;;;;;;;;;;4936335;29;20110;-66
2021/05/04 04:24:45;;;;;;;3.28;2.45;;;;;;;;;;4936048;29;20048;-66
2021/05/04 04:27:11;;;;;;;4.20;2.75;;;;;;;;;;4935651;29;20094;-66
2021/05/04 04:29:38;;;;;;;3.55;2.85;;;;;;;;;;4936257;29;20054;-66
2021/05/04 04:32:05;;;;;;;2.97;2.30;;;;;;;;;;4936205;29;20215;-66
2021/05/04 04:34:31;;;;;;;3.65;2.17;;;;;;;;;;4936208;29;20506;-66
2021/05/04 04:36:57;;;;;;;3.83;2.28;;;;;;;;;;4935760;29;20059;-66
2021/05/04 04:39:23;;;;;;;3.42;1.98;;;;;;;;;;4935930;29;20554;-66
2021/05/04 04:41:49;;;;;;;4.20;2.20;;;;;;;;;;4935703;29;20190;-66
2021/05/04 04:44:15;;;;;;;2.95;2.30;;;;;;;;;;4936021;29;20048;-66
2021/05/04 04:46:41;;;;;;;5.22;2.45;;;;;;;;;;4935592;29;20047;-66
2021/05/04 04:49:09;;;;;;;4.03;2.55;;;;;;;;;;4935755;29;20130;-66
2021/05/04 04:51:35;;;;;;;4.50;2.00;;;;;;;;;;4935661;29;20106;-66
2021/05/04 04:54:02;;;;;;;2.70;2.50;;;;;;;;;;4935824;29;20098;-66
2021/05/04 04:56:29;;;;;;;2.80;2.45;;;;;;;;;;4935735;29;20095;-66
2021/05/04 04:58:55;;;;;;;2.72;2.13;;;;;;;;;;4935545;29;20115;-66
2021/05/04 05:01:21;;;;;;;3.10;1.88;;;;;;;;;;4935420;29;20087;-66
2021/05/04 05:03:47;;;;;;;2.72;1.80;;;;;;;;;;4935490;29;20766;-66
2021/05/04 05:06:13;;;;;;;3.53;2.35;;;;;;;;;;4918455;29;20048;-66
2021/05/04 05:08:39;;;;;;;4.93;2.13;;;;;;;;;;4935255;29;20122;-66
2021/05/04 05:11:05;;;;;;;3.05;2.40;;;;;;;;;;4935332;29;20486;-66
2021/05/04 05:13:33;;;;;;;2.60;1.85;;;;;;;;;;4935288;29;20047;-66
2021/05/04 05:15:59;;;;;;;2.28;2.03;;;;;;;;;;4935159;29;20084;-66
2021/05/04 05:18:25;;;;;;;2.20;2.00;;;;;;;;;;4935229;29;20055;-66
2021/05/04 05:20:51;;;;;;;3.30;2.03;;;;;;;;;;4935010;29;20055;-66
2021/05/04 05:23:17;;;;;;;2.55;2.00;;;;;;;;;;4935300;29;20107;-66
2021/05/04 05:25:43;;;;;;;2.10;1.90;;;;;;;;;;4934752;29;20076;-65
2021/05/04 05:28:09;;;;;;;3.10;2.10;;;;;;;;;;4902559;29;20118;-66
2021/05/04 05:30:36;;;;;;;2.40;1.88;;;;;;;;;;4934941;29;20055;-66
2021/05/04 05:33:02;;;;;;;3.40;2.20;;;;;;;;;;4935047;29;20060;-67
2021/05/04 05:35:29;;;;;;;2.10;1.90;;;;;;;;;;4934730;29;20133;-66
2021/05/04 05:37:55;;;;;;;2.55;2.13;;;;;;;;;;4935088;29;20107;-67
2021/05/04 05:40:21;;;;;;;4.95;2.00;;;;;;;;;;4934323;29;20051;-67
2021/05/04 05:42:48;;;;;;;6.32;2.50;;;;;;;;;;4931996;29;20659;-67
2021/05/04 05:45:15;;;;;;;2.97;2.10;;;;;;;;;;4932665;29;20082;-67
2021/05/04 05:47:41;;;;;;;4.05;2.00;;;;;;;;;;4932643;29;20051;-68
2021/05/04 05:50:07;;;;;;;3.28;2.08;;;;;;;;;;4932782;29;20052;-67
2021/05/04 05:52:34;;;;;;;3.15;2.15;;;;;;;;;;4932527;29;20141;-68
2021/05/04 05:55:00;;;;;;;3.30;2.20;;;;;;;;;;4932215;29;20074;-67
2021/05/04 05:57:26;;;;;;;3.45;1.98;;;;;;;;;;4932371;29;20119;-67
2021/05/04 05:59:52;;;;;;;4.03;2.00;;;;;;;;;;4932558;29;20118;-68
2021/05/04 06:02:18;;;;;;;4.18;2.10;;;;;;;;;;4932672;29;20055;-67
2021/05/04 06:04:45;;;;;;;3.42;2.20;;;;;;;;;;4932495;29;20091;-67
2021/05/04 06:07:11;;;;;;;3.30;1.95;;;;;;;;;;4932056;29;20103;-67
2021/05/04 06:09:40;;;;;;;6.18;2.33;;;;;;;;;;4932727;29;20067;-68
2021/05/04 06:12:07;;;;;;;3.85;2.17;;;;;;;;;;4932928;29;20142;-68
2021/05/04 06:14:33;;;;;;;3.35;2.05;;;;;;;;;;4932650;29;20505;-67
2021/05/04 06:16:59;;;;;;;6.88;2.88;;;;;;;;;;4932249;29;20091;-67
2021/05/04 06:19:25;;;;;;;6.03;2.80;;;;;;;;;;4932732;29;20116;-68
2021/05/04 06:21:51;;;;;;;7.05;2.72;;;;;;;;;;4932169;29;20643;-67
2021/05/04 06:24:17;;;;;;;3.78;2.50;;;;;;;;;;4932609;29;20102;-67
2021/05/04 06:26:43;;;;;;;2.78;2.25;;;;;;;;;;4907370;29;20063;-68
2021/05/04 06:29:09;;;;;;;4.05;2.20;;;;;;;;;;4927870;29;20047;-68
2021/05/04 06:31:36;;;;;;;5.38;3.28;;;;;;;;;;4931308;29;20091;-67
2021/05/04 06:34:04;;;;;;;5.30;3.42;;;;;;;;;;4931274;29;20063;-68
2021/05/04 06:36:31;;;;;;;5.10;2.47;;;;;;;;;;4929612;29;20095;-70
2021/05/04 06:38:57;;;;;;;4.72;2.67;;;;;;;;;;4930696;29;20122;-69
2021/05/04 06:41:23;;;;;;;3.10;2.30;;;;;;;;;;4930019;29;20097;-69
2021/05/04 06:43:50;;;;;;;3.50;2.03;;;;;;;;;;4930986;29;20560;-67
2021/05/04 06:46:17;;;;;;;4.55;1.90;;;;;;;;;;4928837;29;20589;-66
2021/05/04 06:48:43;;;;;;;3.33;1.90;;;;;;;;;;4931871;29;20099;-68
2021/05/04 06:51:09;;;;;;;3.40;1.95;;;;;;;;;;4932725;29;20048;-70
2021/05/04 06:53:35;;;;;;;2.05;1.77;;;;;;;;;;4919599;29;20099;-68
2021/05/04 06:56:01;;;;;;;3.97;2.20;;;;;;;;;;4935646;29;20111;-67
2021/05/04 06:58:28;;;;;;;3.58;2.42;;;;;;;;;;4935965;29;20498;-67
2021/05/04 07:00:54;;;;;;;2.42;2.00;;;;;;;;;;4935789;29;20095;-68
2021/05/04 07:03:20;;;;;;;5.35;2.33;;;;;;;;;;4933707;29;20055;-68
2021/05/04 07:05:46;;;;;;;6.40;2.38;;;;;;;;;;4933945;29;20051;-70
2021/05/04 07:08:13;;;;;;;7.72;2.38;;;;;;;;;;4933984;29;20051;-69
2021/05/04 07:10:39;;;;;;;2.80;1.95;;;;;;;;;;4933342;29;20114;-66
2021/05/04 07:13:13;;;;;;;2.47;1.80;;;;;;;;;;4934144;29;20636;-67
2021/05/04 07:15:39;;;;;;;3.15;1.80;;;;;;;;;;4914705;29;20051;-67
2021/05/04 07:18:09;;;;;;;3.47;1.77;;;;;;;;;;4933867;29;20107;-68
2021/05/04 07:20:37;;;;;;;6.22;2.20;;;;;;;;;;4934814;29;20400;-70
2021/05/04 07:23:07;;;;;;;3.05;1.50;;;;;;;;;;4927361;29;20134;-70
2021/05/04 07:25:33;;;;;;;2.22;1.88;;;;;;;;;;4923759;29;20051;-68
2021/05/04 07:28:00;;;;;;;4.85;1.95;;;;;;;;;;4925653;29;20098;-68
2021/05/04 07:30:31;;;;;;;4.78;1.65;;;;;;;;;;4931792;29;20099;-66
2021/05/04 07:32:58;;;;;;;1.95;1.73;;;;;;;;;;4932142;29;20056;-67
2021/05/04 07:35:25;;;;;;;1.50;1.23;;;;;;;;;;4928862;29;20098;-68
2021/05/04 07:37:52;;;;;;;1.77;1.40;;;;;;;;;;4933782;29;20119;-69
2021/05/04 07:40:18;;;;;;;2.25;1.40;;;;;;;;;;4933802;29;20059;-69
2021/05/04 07:42:45;;;;;;;2.42;1.52;;;;;;;;;;4915828;29;20048;-68
2021/05/04 07:45:11;;;;;;;1.67;1.58;;;;;;;;;;4933923;29;20146;-68
2021/05/04 07:47:38;;;;;;;1.60;1.30;;;;;;;;;;4933461;29;20537;-68
2021/05/04 07:50:07;;;;;;;3.15;1.50;;;;;;;;;;4934074;29;20062;-68
2021/05/04 07:52:34;;;;;;;2.65;1.30;;;;;;;;;;4932139;29;20056;-69
2021/05/04 07:55:00;;;;;;;2.08;1.20;;;;;;;;;;4932801;29;20064;-67
2021/05/04 07:57:27;;;;;;;1.70;1.20;;;;;;;;;;4933130;29;20106;-68
2021/05/04 07:59:55;;;;;;;2.13;1.42;;;;;;;;;;4933852;29;20054;-69
2021/05/04 08:02:21;;;;;;;2.30;1.33;;;;;;;;;;4932817;29;20062;-67
2021/05/04 08:04:48;;;;;;;4.68;1.25;;;;;;;;;;4933341;29;20052;-66
2021/05/04 08:07:15;;;;;;;1.50;1.10;;;;;;;;;;4933374;29;20052;-66
2021/05/04 08:09:42;;;;;;;1.65;1.30;;;;;;;;;;4916285;29;20416;-69
2021/05/04 08:12:09;;;;;;;6.45;1.40;;;;;;;;;;4933107;29;20056;-67
2021/05/04 08:14:36;;;;;;;5.32;1.30;;;;;;;;;;4929603;29;20498;-67
2021/05/04 08:17:16;;;;;;;1.20;1.10;;;;;;;;;;4931662;29;20067;-72
2021/05/04 08:19:42;;;;;;;3.60;1.30;;;;;;;;;;4931629;29;20171;-68
2021/05/04 08:22:09;;;;;;;4.30;1.10;;;;;;;;;;4933199;29;20106;-68
2021/05/04 08:24:36;;;;;;;3.80;1.23;;;;;;;;;;4933410;29;20055;-72
2021/05/04 08:27:02;;;;;;;5.88;1.50;;;;;;;;;;4932244;29;20510;-69
2021/05/04 08:29:28;;;;;;;1.95;1.20;;;;;;;;;;4933128;29;20095;-68
2021/05/04 08:31:54;;;;;;;4.95;1.23;;;;;;;;;;4933316;29;20502;-68
2021/05/04 08:34:21;;;;;;;6.65;1.48;;;;;;;;;;4931395;29;20095;-68
2021/05/04 08:36:51;;;;;;;4.65;1.20;;;;;;;;;;4929561;29;20099;-72
2021/05/04 08:39:17;;;;;;;3.35;1.15;;;;;;;;;;4912087;29;20051;-68
2021/05/04 08:41:43;;;;;;;6.35;1.30;;;;;;;;;;4931480;29;20059;-68
2021/05/04 08:44:20;;;;;;;2.42;1.40;;;;;;;;;;4916820;29;20114;-69
2021/05/04 08:46:47;;;;;;;3.63;1.38;;;;;;;;;;4921751;29;20102;-69
2021/05/04 08:49:16;;;;;;;3.20;1.40;;;;;;;;;;4929359;29;20063;-69
2021/05/04 08:51:43;;;;;;;6.43;1.35;;;;;;;;;;4932496;29;20055;-69
2021/05/04 08:54:09;;;;;;;2.97;1.30;;;;;;;;;;4932723;29;20114;-68
2021/05/04 08:56:36;;;;;;;4.40;1.20;;;;;;;;;;4930271;29;20434;-68
2021/05/04 08:59:04;;;;;;;1.75;1.08;;;;;;;;;;4932117;29;20422;-68
2021/05/04 09:01:31;;;;;;;2.85;1.10;;;;;;;;;;4932190;29;20063;-69
2021/05/04 09:04:10;;;;;;;2.75;1.50;;;;;;;;;;4899291;29;20722;-71
2021/05/04 09:06:42;;;;;;;2.58;1.13;;;;;;;;;;4931449;29;20110;-67
2021/05/04 09:09:36;;;;;;;2.33;1.02;;;;;;;;;;4932212;29;20048;-69
2021/05/04 09:12:04;;;;;;;1.63;1.20;;;;;;;;;;4931523;29;20051;-70
2021/05/04 09:14:47;;;;;;;3.08;1.40;;;;;;;;;;4927465;29;20103;-68
2021/05/04 09:22:17;;;;;;;1.65;1.10;;;;;;;;;;4901937;29;20052;-66
2021/05/04 09:24:44;;;;;;;3.72;1.30;;;;;;;;;;4915327;29;20051;-66
2021/05/04 09:27:12;;;;;;;3.25;1.20;;;;;;;;;;4930940;29;20047;-65
2021/05/04 09:29:44;;;;;;;1.23;0.90;;;;;;;;;;4914865;29;20059;-65
2021/05/04 09:32:20;;;;;;;2.70;1.30;;;;;;;;;;4932012;29;20055;-66
2021/05/04 09:34:51;;;;;;;2.85;1.30;;;;;;;;;;4931371;29;20062;-66
2021/05/04 09:37:36;;;;;;;4.47;1.38;;;;;;;;;;4932505;29;20110;-66
2021/05/04 09:40:22;;;;;;;1.70;1.10;;;;;;;;;;4931301;29;20043;-64
2021/05/04 09:43:07;;;;;;;2.97;1.30;;;;;;;;;;4912163;29;20362;-66
2021/05/04 09:45:36;;;;;;;4.18;1.30;;;;;;;;;;4931073;29;20571;-69
2021/05/04 09:48:14;;;;;;;3.92;1.33;;;;;;;;;;4931130;29;20467;-69
2021/05/04 09:50:58;;;;;;;4.95;1.30;;;;;;;;;;4930142;29;20052;-68
2021/05/04 09:56:03;;;;;;;2.63;1.23;;;;;;;;;;4930863;29;20528;-66
2021/05/04 09:58:40;;;;;;;3.97;1.20;;;;;;;;;;4929354;29;20069;-66
2021/05/04 10:01:14;;;;;;;1.48;1.38;;;;;;;;;;4931127;29;20042;-67
2021/05/04 10:03:42;;;;;;;4.38;1.55;;;;;;;;;;4931324;29;20615;-67
2021/05/04 10:06:10;;;;;;;3.20;1.35;;;;;;;;;;4931075;29;20055;-66
2021/05/04 10:08:37;;;;;;;2.45;1.70;;;;;;;;;;4930999;29;20107;-67
2021/05/04 10:11:12;;;;;;;4.18;1.40;;;;;;;;;;4929244;29;20083;-67
2021/05/04 10:13:40;;;;;;;4.50;1.65;;;;;;;;;;4930846;29;20083;-67
2021/05/04 10:16:08;;;;;;;1.23;1.13;;;;;;;;;;4931037;29;20048;-67
2021/05/04 10:18:35;;;;;;;4.10;1.15;;;;;;;;;;4930897;29;20047;-67
2021/05/04 10:21:05;;;;;;;2.45;1.25;;;;;;;;;;4931160;29;20482;-67
2021/05/04 10:23:32;;;;;;;5.22;1.20;;;;;;;;;;4931102;29;20106;-67
2021/05/04 10:26:00;;;;;;;4.07;1.35;;;;;;;;;;4932004;29;20093;-67
2021/05/04 10:28:32;;;;;;;2.13;1.20;;;;;;;;;;4918293;29;20120;-67
2021/05/04 10:31:03;;;;;;;3.37;1.83;;;;;;;;;;4918391;29;20800;-66
2021/05/04 10:33:34;;;;;;;5.30;1.38;;;;;;;;;;4954391;23;20048;-74
2021/05/04 10:36:02;;;;;;;4.20;1.55;;;;;;;;;;4950648;29;20043;-73
2021/05/04 10:38:51;;;;;;;1.83;1.15;;;;;;;;;;4926594;29;20059;-73
2021/05/04 10:41:18;;;;;;;2.78;1.00;;;;;;;;;;4910582;29;20052;-73
2021/05/04 10:43:44;;;;;;;5.03;1.80;;;;;;;;;;4951012;29;20047;-72
2021/05/04 10:46:36;;;;;;;4.18;1.40;;;;;;;;;;4921584;29;20058;-73
2021/05/04 10:49:04;;;;;;;2.55;1.80;;;;;;;;;;4916958;29;20052;-74
2021/05/04 10:51:48;;;;;;;5.20;1.50;;;;;;;;;;4934861;29;20158;-74
2021/05/04 10:54:16;;;;;;;3.88;1.50;;;;;;;;;;4910431;29;20043;-73
2021/05/04 10:56:45;;;;;;;1.58;1.20;;;;;;;;;;4936089;29;20561;-73
2021/05/04 10:59:32;;;;;;;2.30;1.27;;;;;;;;;;4936207;29;20462;-69
2021/05/04 11:02:10;;;;;;;3.42;1.30;;;;;;;;;;4907441;29;20051;-72
2021/05/04 11:04:41;;;;;;;4.15;1.48;;;;;;;;;;4933578;29;20052;-69
2021/05/04 11:07:07;;;;;;;4.13;1.50;;;;;;;;;;4935956;29;20062;-70
2021/05/04 11:09:39;;;;;;;2.25;1.17;;;;;;;;;;4935866;29;20087;-72
2021/05/04 11:12:08;;;;;;;2.72;1.48;;;;;;;;;;4935502;29;20248;-71
2021/05/04 11:14:37;;;;;;;1.95;1.30;;;;;;;;;;4919323;29;20146;-70
2021/05/04 11:17:12;;;;;;;1.63;1.00;;;;;;;;;;4935874;29;20392;-71
2021/05/04 11:19:41;;;;;;;1.85;1.05;;;;;;;;;;4935239;29;20111;-70
2021/05/04 11:22:09;;;;;;;1.85;1.33;;;;;;;;;;4935794;29;20062;-72
2021/05/04 11:24:42;;;;;;;3.58;0.90;;;;;;;;;;4919139;29;20142;-73
2021/05/04 11:27:08;;;;;;;2.08;1.40;;;;;;;;;;4935075;29;20087;-73
2021/05/04 11:29:36;;;;;;;1.48;1.17;;;;;;;;;;4936490;29;20051;-73
2021/05/04 11:32:10;;;;;;;2.55;1.02;;;;;;;;;;4937107;29;20052;-75
2021/05/04 11:34:42;;;;;;;2.08;1.25;;;;;;;;;;4933270;29;20139;-73
2021/05/04 11:37:13;;;;;;;3.08;1.63;;;;;;;;;;4916746;29;20043;-73
2021/05/04 11:39:57;;;;;;;3.00;1.20;;;;;;;;;;4918483;29;20103;-71
2021/05/04 11:42:30;;;;;;;3.70;1.20;;;;;;;;;;4897947;29;20048;-71
2021/05/04 11:45:21;;;;;;;4.78;1.50;;;;;;;;;;4935594;29;20102;-73
2021/05/04 11:47:49;;;;;;;4.00;1.45;;;;;;;;;;4933351;29;20058;-74
2021/05/04 11:50:23;;;;;;;4.95;1.20;;;;;;;;;;4909226;29;20107;-75
2021/05/04 11:52:51;;;;;;;1.95;1.13;;;;;;;;;;4918545;29;20063;-72
2021/05/04 11:55:28;;;;;;;3.35;1.02;;;;;;;;;;4935712;29;20052;-75
2021/05/04 11:58:04;;;;;;;3.08;1.40;;;;;;;;;;4935570;29;20059;-74
2021/05/04 12:00:34;;;;;;;1.10;1.10;;;;;;;;;;4888336;29;20103;-77
2021/05/04 12:03:18;;;;;;;2.35;1.25;;;;;;;;;;4922176;29;20052;-74
2021/05/04 12:05:45;;;;;;;;;;;;;;;;;;4904626;29;20043;-75
2021/05/04 12:08:12;;;;;;;2.13;1.20;;;;;;;;;;4935647;29;20345;-74
2021/05/04 12:10:51;;;;;;;3.53;1.30;;;;;;;;;;4917851;29;20075;-75
2021/05/04 12:13:37;;;;;;;1.20;1.10;;;;;;;;;;4899599;29;20066;-75
2021/05/04 12:16:07;;;;;;;1.70;1.35;;;;;;;;;;4902987;29;20039;-75
2021/05/04 12:18:42;;;;;;;1.48;1.38;;;;;;;;;;4933342;29;20399;-75
2021/05/04 12:21:13;;;;;;;4.22;1.95;;;;;;;;;;4904284;29;20403;-75
2021/05/04 12:23:41;;;;;;;4.95;1.20;;;;;;;;;;4903340;29;20060;-74
2021/05/04 12:26:13;;;;;;;5.53;1.20;;;;;;;;;;4934389;29;20441;-75
2021/05/04 12:28:39;;;;;;;2.20;1.20;;;;;;;;;;4905829;29;20056;-75
2021/05/04 12:31:11;;;;;;;3.03;1.20;;;;;;;;;;4925672;29;20069;-75
2021/05/04 12:33:39;;;;;;;1.40;1.30;;;;;;;;;;4902244;29;20047;-75
2021/05/04 12:36:12;;;;;;;1.50;1.20;;;;;;;;;;4935201;29;20048;-75
2021/05/04 12:41:16;;;;;;;2.65;1.10;;;;;;;;;;4918446;29;20098;-75
2021/05/04 12:44:01;;;;;;;2.65;1.27;;;;;;;;;;4902318;29;20107;-75
2021/05/04 12:46:48;;;;;;;3.72;1.23;;;;;;;;;;4920891;29;20052;-76
2021/05/04 12:49:14;;;;;;;1.67;1.10;;;;;;;;;;4935016;29;20051;-75
2021/05/04 12:51:48;;;;;;;3.03;1.33;;;;;;;;;;4919941;29;20399;-74
2021/05/04 12:54:18;;;;;;;2.60;1.15;;;;;;;;;;4934539;29;20083;-74
2021/05/04 12:56:52;;;;;;;2.72;1.45;;;;;;;;;;4935326;29;20052;-74
2021/05/04 12:59:30;;;;;;;4.13;1.55;;;;;;;;;;4934448;29;20114;-74
2021/05/04 13:02:02;;;;;;;3.08;1.40;;;;;;;;;;4935735;29;20107;-75
2021/05/04 13:07:31;;;;;;;2.28;1.23;;;;;;;;;;4934592;29;20096;-75
2021/05/04 13:10:11;;;;;;;2.78;1.50;;;;;;;;;;4935445;29;20487;-74
2021/05/04 13:12:45;;;;;;;3.00;1.50;;;;;;;;;;4935421;29;20059;-74
2021/05/04 13:31:37;;;;;;;2.03;1.27;;;;;;;;;;4907771;29;20247;-74
2021/05/04 13:34:24;;;;;;;;;;;;;;;;;;;;;
2021/05/04 13:49:31;;;;;;;7.00;1.50;;;;;;;;;;4901018;29;20060;-74
2021/05/04 13:51:59;;;;;;;3.80;1.23;;;;;;;;;;4900765;29;20090;-74
2021/05/04 13:54:25;;;;;;;3.65;1.52;;;;;;;;;;4909084;29;20056;-73
2021/05/04 13:56:52;;;;;;;4.65;1.20;;;;;;;;;;4933068;29;20130;-72
2021/05/04 13:59:18;;;;;;;2.05;1.10;;;;;;;;;;4933194;29;20055;-71
2021/05/04 14:01:51;;;;;;;5.65;1.30;;;;;;;;;;4918934;29;20456;-72
2021/05/04 14:04:34;;;;;;;1.30;1.20;;;;;;;;;;4915323;29;20134;-75
2021/05/04 14:26:09;;;;;;;1.13;1.00;;;;;;;;;;4932972;29;20048;-72
2021/05/04 14:28:33;;;;;;;1.02;0.98;;;;;;;;;;4931510;29;20176;-73
2021/05/04 14:31:00;;;;;;;6.78;1.90;;;;;;;;;;4915630;29;20059;-74
2021/05/04 14:33:26;;;;;;;2.50;1.50;;;;;;;;;;4934687;29;20048;-72
2021/05/04 14:36:04;;;;;;;3.83;1.90;;;;;;;;;;4933060;29;20047;-72
2021/05/04 14:38:46;;;;;;;2.55;1.30;;;;;;;;;;4930477;29;20048;-72
2021/05/04 14:41:36;;;;;;;2.00;1.30;;;;;;;;;;4900657;29;20114;-73
2021/05/04 14:59:50;;;;;;;2.75;1.20;;;;;;;;;;4932631;29;20106;-74
2021/05/04 15:02:18;;;;;;;1.90;1.40;;;;;;;;;;4902356;29;20561;-71
2021/05/04 15:04:55;;;;;;;1.35;1.25;;;;;;;;;;4931843;29;20083;-72
2021/05/04 15:07:21;;;;;;;1.83;1.20;;;;;;;;;;4916821;29;20458;-70
2021/05/04 15:09:47;;;;;;;4.88;1.52;;;;;;;;;;4931867;29;20107;-70
2021/05/04 15:12:16;;;;;;;1.67;1.52;;;;;;;;;;4932899;29;20110;-72
2021/05/04 15:14:52;;;;;;;1.90;1.40;;;;;;;;;;4935209;29;20502;-71
2021/05/04 15:17:29;;;;;;;2.53;1.10;;;;;;;;;;4910297;29;20058;-75
2021/05/04 15:22:51;;;;;;;2.30;1.33;;;;;;;;;;4917956;29;20052;-71
2021/05/04 15:25:17;;;;;;;1.45;1.30;;;;;;;;;;4919246;29;20051;-75
2021/05/04 15:27:44;;;;;;;1.55;1.45;;;;;;;;;;4918626;29;20079;-71
2021/05/04 15:30:10;;;;;;;5.30;1.83;;;;;;;;;;4935240;29;20142;-72
2021/05/04 15:32:56;;;;;;;3.25;1.50;;;;;;;;;;4932159;29;20130;-72
2021/05/04 15:35:26;;;;;;;2.03;1.65;;;;;;;;;;4908099;29;20416;-72
2021/05/04 15:37:52;;;;;;;2.80;1.40;;;;;;;;;;4935860;29;20409;-72
2021/05/04 15:40:18;;;;;;;1.98;1.67;;;;;;;;;;4903144;29;20047;-71
2021/05/04 15:42:44;;;;;;;1.70;1.60;;;;;;;;;;4935539;29;20052;-72
2021/05/04 15:45:14;;;;;;;2.55;2.00;;;;;;;;;;4900351;29;20056;-73
2021/05/04 15:47:54;;;;;;;2.03;1.83;;;;;;;;;;4912660;29;20052;-72
2021/05/04 15:56:02;;;;;;;2.58;1.90;;;;;;;;;;4936157;29;20162;-72
2021/05/04 16:06:24;;;;;;;2.05;1.85;;;;;;;;;;4915295;29;20132;-71
2021/05/04 16:08:54;;;;;;;2.72;2.03;;;;;;;;;;4932747;29;20055;-72
2021/05/04 16:11:21;;;;;;;2.17;1.98;;;;;;;;;;4913843;29;20055;-73
2021/05/04 16:13:47;;;;;;;2.63;1.83;;;;;;;;;;4899543;29;20055;-73
2021/05/04 16:16:15;;;;;;;4.25;1.90;;;;;;;;;;4909041;29;20099;-72
2021/05/04 16:18:44;;;;;;;4.43;2.42;;;;;;;;;;4923500;29;20055;-72
2021/05/04 16:28:46;;;;;;;2.40;2.13;;;;;;;;;;4933262;29;20080;-72
2021/05/04 16:31:12;;;;;;;2.85;1.98;;;;;;;;;;4931953;29;20051;-71
2021/05/04 16:33:38;;;;;;;3.40;2.20;;;;;;;;;;4932605;29;20087;-73